Time;durP1;ratioP1;P1;durP2;ratioP2;P2;SDS_P1;SDS_P2;PMS_P1;PMS_P2;Temp;Humidity;BMP_temperature;BMP_pressure;BME280_temperature;BME280_humidity;BME280_pressure;Samples;Min_cycle;Max_cycle;Signal;HPM_P1;HPM_P2
2021/07/24 00:02:16;;;;;;;8.43;7.60;;;19.10;99.90;;;;;;5032695;28;20428;-41
2021/07/24 00:04:41;;;;;;;8.23;7.43;;;19.10;99.90;;;;;;5030137;28;20184;-44
2021/07/24 00:07:07;;;;;;;8.57;7.70;;;19.10;99.90;;;;;;5032826;28;20198;-41
2021/07/24 00:09:33;;;;;;;8.10;7.30;;;19.00;99.90;;;;;;5025504;28;20213;-41
2021/07/24 00:11:58;;;;;;;8.73;7.93;;;18.90;99.90;;;;;;5026654;28;20657;-41
2021/07/24 00:14:24;;;;;;;9.90;8.50;;;18.90;99.90;;;;;;5030525;28;20679;-40
2021/07/24 00:16:50;;;;;;;9.10;7.60;;;19.00;99.90;;;;;;5030390;28;20195;-41
2021/07/24 00:19:16;;;;;;;8.43;7.40;;;18.90;99.90;;;;;;5025458;28;20439;-41
2021/07/24 00:21:41;;;;;;;8.37;7.57;;;18.90;99.90;;;;;;5023939;28;20478;-41
2021/07/24 00:24:07;;;;;;;7.90;7.20;;;18.80;99.90;;;;;;5025049;28;20194;-43
2021/07/24 00:26:33;;;;;;;8.67;7.87;;;18.80;99.90;;;;;;5024187;28;20199;-41
2021/07/24 00:29:00;;;;;;;9.70;8.63;;;18.70;99.90;;;;;;5028101;28;20189;-46
2021/07/24 00:31:26;;;;;;;8.10;7.30;;;18.80;99.90;;;;;;5044090;28;20561;-43
2021/07/24 00:33:51;;;;;;;8.33;7.53;;;18.80;99.90;;;;;;5026039;28;20425;-42
2021/07/24 00:36:17;;;;;;;9.30;8.37;;;18.70;99.90;;;;;;5028814;28;20649;-41
2021/07/24 00:38:42;;;;;;;9.37;8.37;;;18.70;99.90;;;;;;5024795;28;20218;-41
2021/07/24 00:41:16;;;;;;;9.87;8.10;;;18.70;99.90;;;;;;5024490;28;20286;-41
2021/07/24 00:43:45;;;;;;;9.80;8.60;;;18.60;99.90;;;;;;5034488;28;20575;-40
2021/07/24 00:46:13;;;;;;;10.77;9.00;;;18.70;99.90;;;;;;5034767;28;20425;-43
2021/07/24 00:48:41;;;;;;;9.60;8.10;;;18.70;99.90;;;;;;5030875;28;20761;-41
2021/07/24 00:51:07;;;;;;;8.97;7.80;;;18.60;99.90;;;;;;5041897;28;20431;-41
2021/07/24 00:53:34;;;;;;;9.70;8.20;;;18.60;99.90;;;;;;5028307;28;20429;-44
2021/07/24 00:56:01;;;;;;;8.87;8.00;;;18.60;99.90;;;;;;5028218;28;20190;-43
2021/07/24 00:58:30;;;;;;;10.70;8.90;;;18.60;99.90;;;;;;5032816;28;20444;-42
2021/07/24 01:00:56;;;;;;;8.97;8.07;;;18.60;99.90;;;;;;5034878;28;20783;-43
2021/07/24 01:03:22;;;;;;;10.67;8.50;;;18.60;99.90;;;;;;5028054;28;20516;-43
2021/07/24 01:05:54;;;;;;;9.90;8.90;;;18.50;99.90;;;;;;5025698;28;20425;-42
2021/07/24 01:08:20;;;;;;;8.53;7.73;;;18.50;99.90;;;;;;5028123;28;20425;-44
2021/07/24 01:10:50;;;;;;;8.80;7.90;;;18.50;99.90;;;;;;5027818;28;20429;-42
2021/07/24 01:13:17;;;;;;;8.97;8.07;;;18.40;99.90;;;;;;5037558;28;20446;-41
2021/07/24 01:15:44;;;;;;;10.23;8.50;;;18.40;99.90;;;;;;5042052;28;20425;-41
2021/07/24 01:18:10;;;;;;;9.07;8.20;;;18.40;99.90;;;;;;5037643;28;20516;-41
2021/07/24 01:20:37;;;;;;;9.03;8.13;;;18.30;99.90;;;;;;5031403;28;21022;-41
2021/07/24 01:23:03;;;;;;;11.70;8.90;;;18.20;99.90;;;;;;5026493;28;20588;-42
2021/07/24 01:25:28;;;;;;;8.83;7.83;;;18.20;99.90;;;;;;5026856;28;20422;-41
2021/07/24 01:27:54;;;;;;;9.20;8.30;;;18.20;99.90;;;;;;5029843;28;20248;-41
2021/07/24 01:30:20;;;;;;;10.17;8.57;;;18.10;99.90;;;;;;5040998;28;20341;-41
2021/07/24 01:32:45;;;;;;;11.80;8.70;;;18.00;99.90;;;;;;5032907;28;20220;-43
2021/07/24 01:35:11;;;;;;;10.13;9.10;;;18.10;99.90;;;;;;5027825;28;20186;-42
2021/07/24 01:37:37;;;;;;;11.03;8.73;;;18.10;99.90;;;;;;5037239;28;20194;-41
2021/07/24 01:40:04;;;;;;;11.03;8.80;;;18.20;99.90;;;;;;5027423;28;20911;-41
2021/07/24 01:42:30;;;;;;;10.10;9.10;;;18.10;99.90;;;;;;5028443;28;20456;-42
2021/07/24 01:44:56;;;;;;;10.57;8.73;;;18.10;99.90;;;;;;5039816;28;20417;-42
2021/07/24 01:47:21;;;;;;;10.13;8.67;;;18.10;99.90;;;;;;5034064;28;20221;-45
2021/07/24 01:52:48;;;;;;;10.00;9.00;;;18.00;99.90;;;;;;5026746;28;20213;-42
2021/07/24 01:55:51;;;;;;;10.60;9.57;;;18.00;99.90;;;;;;5026928;28;20837;-41
2021/07/24 01:58:22;;;;;;;11.33;9.50;;;18.00;99.90;;;;;;5031282;28;20641;-42
2021/07/24 02:00:49;;;;;;;10.40;9.23;;;17.90;99.90;;;;;;5038961;28;20779;-41
2021/07/24 02:03:17;;;;;;;11.43;9.40;;;17.90;99.90;;;;;;5025394;28;20756;-42
2021/07/24 02:05:49;;;;;;;10.93;9.53;;;17.80;99.90;;;;;;5039233;28;20428;-44
2021/07/24 02:08:20;;;;;;;13.73;9.30;;;17.80;99.90;;;;;;5025891;28;20649;-42
2021/07/24 02:10:47;;;;;;;10.17;8.93;;;17.80;99.90;;;;;;5027196;28;20428;-41
2021/07/24 02:13:14;;;;;;;10.90;9.00;;;17.90;99.90;;;;;;5030088;28;20476;-41
2021/07/24 02:15:40;;;;;;;9.57;8.57;;;17.80;99.90;;;;;;5031423;28;20417;-43
2021/07/24 02:18:06;;;;;;;11.73;10.30;;;17.70;99.90;;;;;;5029024;28;20429;-41
2021/07/24 02:20:32;;;;;;;11.27;9.00;;;17.50;99.90;;;;;;5029018;28;20529;-44
2021/07/24 02:22:58;;;;;;;12.60;9.97;;;17.50;99.90;;;;;;5036923;28;20448;-41
2021/07/24 02:25:24;;;;;;;10.80;9.70;;;17.50;99.90;;;;;;5026613;28;21009;-41
2021/07/24 02:27:51;;;;;;;10.90;9.80;;;17.60;99.90;;;;;;5032311;28;20444;-41
2021/07/24 02:30:17;;;;;;;12.73;9.30;;;17.50;99.90;;;;;;5028169;28;20194;-42
2021/07/24 02:32:43;;;;;;;10.00;9.00;;;17.60;99.90;;;;;;5029210;28;20877;-46
2021/07/24 02:35:10;;;;;;;10.33;8.90;;;17.50;99.90;;;;;;5026508;28;20830;-41
2021/07/24 02:37:36;;;;;;;11.40;9.90;;;17.50;99.90;;;;;;5034654;28;20567;-41
2021/07/24 02:40:04;;;;;;;10.20;9.13;;;17.50;99.90;;;;;;5026423;28;20464;-44
2021/07/24 02:42:30;;;;;;;10.97;9.77;;;17.40;99.90;;;;;;5025572;28;20535;-41
2021/07/24 02:44:55;;;;;;;11.20;10.10;;;17.40;99.90;;;;;;5035684;28;21026;-41
2021/07/24 02:47:21;;;;;;;11.67;10.30;;;17.40;99.90;;;;;;5043650;28;20649;-41
2021/07/24 02:49:47;;;;;;;12.33;10.93;;;17.30;99.90;;;;;;5029126;28;20197;-41
2021/07/24 02:52:13;;;;;;;11.87;9.73;;;17.30;99.90;;;;;;5028648;28;20216;-45
2021/07/24 02:54:38;;;;;;;12.73;10.33;;;17.30;99.90;;;;;;5025600;28;20289;-44
2021/07/24 02:57:04;;;;;;;12.37;10.50;;;17.30;99.90;;;;;;5025881;28;20185;-41
2021/07/24 02:59:30;;;;;;;12.27;11.03;;;17.40;99.90;;;;;;5034389;28;20416;-41
2021/07/24 03:01:57;;;;;;;11.70;10.47;;;17.40;99.90;;;;;;5040324;28;20451;-41
2021/07/24 03:04:23;;;;;;;13.73;10.87;;;17.30;99.90;;;;;;5029885;28;20198;-41
2021/07/24 03:06:48;;;;;;;13.07;10.63;;;17.40;99.90;;;;;;5044325;28;20829;-41
2021/07/24 03:09:15;;;;;;;15.30;10.80;;;17.40;99.90;;;;;;5028461;28;20449;-41
2021/07/24 03:11:41;;;;;;;12.13;10.80;;;17.40;99.90;;;;;;5025497;28;20633;-43
2021/07/24 03:14:06;;;;;;;15.03;10.10;;;17.40;99.90;;;;;;5034494;28;20523;-41
2021/07/24 03:16:32;;;;;;;11.33;10.13;;;17.40;99.90;;;;;;5036009;28;20428;-41
2021/07/24 03:18:58;;;;;;;12.17;10.87;;;17.30;99.90;;;;;;5026296;28;20222;-41
2021/07/24 03:21:23;;;;;;;12.50;10.67;;;17.40;99.90;;;;;;5031352;28;20186;-44
2021/07/24 03:23:49;;;;;;;13.13;11.83;;;17.30;99.90;;;;;;5029090;28;20198;-41
2021/07/24 03:26:15;;;;;;;11.97;10.73;;;17.20;99.90;;;;;;5025304;28;20378;-40
2021/07/24 03:28:40;;;;;;;12.20;10.90;;;17.20;99.90;;;;;;5031565;28;20219;-41
2021/07/24 03:31:06;;;;;;;12.13;10.70;;;17.30;99.90;;;;;;5034909;28;20689;-41
2021/07/24 03:33:32;;;;;;;16.70;11.77;;;17.20;99.90;;;;;;5029056;28;20273;-41
2021/07/24 03:35:58;;;;;;;11.80;10.70;;;17.20;99.90;;;;;;5026681;28;20428;-42
2021/07/24 03:38:24;;;;;;;10.73;9.73;;;17.20;99.90;;;;;;5029341;28;20463;-45
2021/07/24 03:40:49;;;;;;;12.83;10.60;;;17.20;99.90;;;;;;5025725;28;20616;-41
2021/07/24 03:43:15;;;;;;;12.60;10.03;;;17.20;99.90;;;;;;5027991;28;20464;-41
2021/07/24 03:45:41;;;;;;;12.10;10.67;;;17.20;99.90;;;;;;5042460;28;20212;-42
2021/07/24 03:48:07;;;;;;;11.87;10.67;;;17.20;99.90;;;;;;5038752;28;20437;-41
2021/07/24 03:50:33;;;;;;;13.80;10.10;;;17.20;99.90;;;;;;5025768;28;20194;-42
2021/07/24 03:53:00;;;;;;;13.47;11.23;;;17.10;99.90;;;;;;5026968;28;20647;-43
2021/07/24 03:55:27;;;;;;;11.60;10.40;;;17.10;99.90;;;;;;5023475;28;20495;-41
2021/07/24 03:57:55;;;;;;;20.73;11.50;;;17.10;99.90;;;;;;5025403;28;20432;-42
2021/07/24 04:00:22;;;;;;;12.67;11.37;;;17.10;99.90;;;;;;5034394;28;20519;-41
2021/07/24 04:02:49;;;;;;;13.10;11.67;;;17.10;99.90;;;;;;5035870;28;20696;-40
2021/07/24 04:05:14;;;;;;;13.50;11.70;;;17.10;99.90;;;;;;5034214;28;20455;-43
2021/07/24 04:07:41;;;;;;;13.47;11.80;;;17.10;99.90;;;;;;5041002;28;20437;-40
2021/07/24 04:10:09;;;;;;;11.40;10.30;;;17.10;99.90;;;;;;5025069;28;20206;-40
2021/07/24 04:12:36;;;;;;;12.30;10.90;;;17.10;99.90;;;;;;5025584;28;20555;-42
2021/07/24 04:15:02;;;;;;;13.40;11.43;;;17.10;99.90;;;;;;5035187;28;20436;-41
2021/07/24 04:17:28;;;;;;;13.27;11.63;;;17.10;99.90;;;;;;5035665;28;20459;-41
2021/07/24 04:19:55;;;;;;;12.00;10.80;;;17.10;99.90;;;;;;5025490;28;20457;-42
2021/07/24 04:22:21;;;;;;;13.10;11.77;;;17.00;99.90;;;;;;5033559;28;20190;-41
2021/07/24 04:24:47;;;;;;;13.20;11.87;;;17.10;99.90;;;;;;5028568;28;20511;-47
2021/07/24 04:27:12;;;;;;;12.43;11.17;;;17.10;99.90;;;;;;5028957;28;20948;-41
2021/07/24 04:29:38;;;;;;;13.10;11.70;;;17.10;99.90;;;;;;5041142;28;20201;-41
2021/07/24 04:32:04;;;;;;;12.87;11.57;;;17.10;99.90;;;;;;5044261;28;20206;-40
2021/07/24 04:34:30;;;;;;;15.50;11.20;;;17.10;99.90;;;;;;5036393;28;20580;-43
2021/07/24 04:36:56;;;;;;;11.67;10.47;;;17.10;99.90;;;;;;5029831;28;20412;-41
2021/07/24 04:39:22;;;;;;;12.23;10.93;;;17.10;99.90;;;;;;5029143;28;20193;-42
2021/07/24 04:41:47;;;;;;;12.70;10.40;;;17.10;99.90;;;;;;5028607;28;20429;-42
2021/07/24 04:44:13;;;;;;;14.00;11.70;;;17.10;99.90;;;;;;5028147;28;20210;-43
2021/07/24 04:46:39;;;;;;;13.20;11.27;;;17.10;99.90;;;;;;5035314;28;20186;-40
2021/07/24 04:49:04;;;;;;;14.13;12.63;;;17.20;99.90;;;;;;5030525;28;20194;-41
2021/07/24 04:51:30;;;;;;;12.40;11.10;;;17.30;99.90;;;;;;5030051;28;20573;-41
2021/07/24 04:53:57;;;;;;;13.23;11.93;;;17.30;99.90;;;;;;5036500;28;20490;-41
2021/07/24 04:56:23;;;;;;;13.87;12.47;;;17.40;99.90;;;;;;5028008;28;21021;-41
2021/07/24 04:58:49;;;;;;;14.50;11.20;;;17.40;99.90;;;;;;5027770;28;20452;-42
2021/07/24 05:01:18;;;;;;;12.70;11.10;;;17.50;99.90;;;;;;5032978;28;20432;-41
2021/07/24 05:03:44;;;;;;;12.83;11.53;;;17.50;99.90;;;;;;5034771;28;20856;-41
2021/07/24 05:06:10;;;;;;;19.30;11.90;;;17.60;99.90;;;;;;5045093;28;20454;-43
2021/07/24 05:08:37;;;;;;;13.67;12.30;;;17.70;99.90;;;;;;5036168;28;20186;-41
2021/07/24 05:11:03;;;;;;;12.17;10.97;;;17.70;99.90;;;;;;5028450;28;20937;-46
2021/07/24 05:13:30;;;;;;;11.77;10.53;;;17.80;99.90;;;;;;5027474;28;20437;-40
2021/07/24 05:15:56;;;;;;;14.37;11.80;;;17.80;99.90;;;;;;5031877;28;20803;-40
2021/07/24 05:18:22;;;;;;;13.30;12.00;;;18.00;99.90;;;;;;5046126;28;20598;-44
2021/07/24 05:20:47;;;;;;;11.40;10.20;;;18.00;99.90;;;;;;5029326;28;20427;-42
2021/07/24 05:23:14;;;;;;;13.20;11.80;;;18.00;99.90;;;;;;5031216;28;20536;-43
2021/07/24 05:25:40;;;;;;;11.33;10.20;;;18.00;99.90;;;;;;5027610;28;20557;-41
2021/07/24 05:28:06;;;;;;;13.60;11.77;;;18.00;99.90;;;;;;5027507;28;20787;-42
2021/07/24 05:30:32;;;;;;;14.10;11.60;;;18.00;99.90;;;;;;5036018;28;20424;-41
2021/07/24 05:32:57;;;;;;;12.43;11.13;;;18.00;99.90;;;;;;5038810;28;20223;-42
2021/07/24 05:35:23;;;;;;;13.37;11.97;;;18.10;99.90;;;;;;5027016;28;20194;-43
2021/07/24 05:37:48;;;;;;;13.20;11.27;;;18.10;99.90;;;;;;5038736;28;20209;-43
2021/07/24 05:40:14;;;;;;;12.33;11.13;;;18.20;99.90;;;;;;5029837;28;20210;-48
2021/07/24 05:42:40;;;;;;;12.03;10.93;;;18.20;99.90;;;;;;5027724;28;20260;-43
2021/07/24 05:45:06;;;;;;;12.37;10.87;;;18.30;99.90;;;;;;5031090;28;20187;-41
2021/07/24 05:47:32;;;;;;;12.83;11.53;;;18.30;99.90;;;;;;5040052;28;20182;-42
2021/07/24 05:50:00;;;;;;;11.70;10.50;;;18.40;99.90;;;;;;5027435;28;20779;-40
2021/07/24 05:52:25;;;;;;;13.03;11.70;;;18.50;99.90;;;;;;5044805;28;20483;-41
2021/07/24 05:54:52;;;;;;;13.73;11.53;;;18.60;99.90;;;;;;5029151;28;20850;-42
2021/07/24 05:57:17;;;;;;;12.27;11.03;;;18.70;99.90;;;;;;5027753;28;20183;-41
2021/07/24 05:59:43;;;;;;;11.97;10.87;;;18.80;99.90;;;;;;5029789;28;20491;-41
2021/07/24 06:02:15;;;;;;;12.40;11.30;;;18.80;99.90;;;;;;5033208;28;20877;-41
2021/07/24 06:04:44;;;;;;;12.37;11.17;;;18.90;99.90;;;;;;5038305;28;20598;-43
2021/07/24 06:07:10;;;;;;;13.50;11.10;;;18.90;99.90;;;;;;5031290;28;20420;-41
2021/07/24 06:09:36;;;;;;;11.10;10.00;;;18.90;99.90;;;;;;5027620;28;20439;-41
2021/07/24 06:12:02;;;;;;;11.53;10.30;;;18.90;99.90;;;;;;5027165;28;20457;-44
2021/07/24 06:14:28;;;;;;;11.80;10.70;;;19.00;99.90;;;;;;5026363;28;20273;-41
2021/07/24 06:16:54;;;;;;;13.60;10.63;;;19.10;99.90;;;;;;5041913;28;20510;-44
2021/07/24 06:19:20;;;;;;;11.80;10.70;;;19.20;99.90;;;;;;5034518;28;20190;-41
2021/07/24 06:21:46;;;;;;;11.87;10.67;;;19.20;99.90;;;;;;5027274;28;20789;-41
2021/07/24 06:24:13;;;;;;;11.20;10.13;;;19.30;99.90;;;;;;5038999;28;20434;-41
2021/07/24 06:26:39;;;;;;;13.83;11.20;;;19.30;99.90;;;;;;5026661;28;20476;-43
2021/07/24 06:29:05;;;;;;;12.30;10.67;;;19.40;99.90;;;;;;5032163;28;20455;-44
2021/07/24 06:31:31;;;;;;;12.37;11.07;;;19.40;99.90;;;;;;5034190;28;20456;-44
2021/07/24 06:33:56;;;;;;;11.03;9.97;;;19.50;99.90;;;;;;5033781;28;20421;-42
2021/07/24 06:36:22;;;;;;;12.90;11.23;;;19.50;99.90;;;;;;5034922;28;20186;-44
2021/07/24 06:38:48;;;;;;;11.83;10.60;;;19.50;99.90;;;;;;5035336;28;20179;-41
2021/07/24 06:41:13;;;;;;;14.00;10.77;;;19.60;99.90;;;;;;5034099;28;20178;-43
2021/07/24 06:43:39;;;;;;;12.00;10.10;;;19.70;99.90;;;;;;5033927;28;20502;-41
2021/07/24 06:46:12;;;;;;;11.90;10.70;;;19.80;99.90;;;;;;5037710;28;20182;-41
2021/07/24 06:48:39;;;;;;;13.43;10.23;;;19.80;99.90;;;;;;5032181;28;20183;-42
2021/07/24 06:51:05;;;;;;;11.40;10.30;;;20.00;99.90;;;;;;5032983;28;20487;-48
2021/07/24 06:53:31;;;;;;;12.20;10.90;;;20.00;99.90;;;;;;5034150;28;20946;-42
2021/07/24 06:55:57;;;;;;;14.10;11.40;;;20.10;99.90;;;;;;5040904;28;20539;-41
2021/07/24 06:58:23;;;;;;;15.73;11.50;;;20.20;99.90;;;;;;5034430;28;20879;-46
2021/07/24 07:00:48;;;;;;;11.30;10.07;;;20.20;99.90;;;;;;5035952;28;20189;-44
2021/07/24 07:03:14;;;;;;;12.40;11.20;;;20.30;99.90;;;;;;5032286;28;20190;-43
2021/07/24 07:05:39;;;;;;;11.90;10.70;;;20.40;99.90;;;;;;5029681;28;20631;-42
2021/07/24 07:08:05;;;;;;;13.37;10.80;;;20.50;99.90;;;;;;5033563;28;20185;-44
2021/07/24 07:10:31;;;;;;;11.57;10.40;;;20.50;99.90;;;;;;5031886;28;20214;-41
2021/07/24 07:12:58;;;;;;;13.50;11.30;;;20.40;99.90;;;;;;5025907;28;20528;-42
2021/07/24 07:15:25;;;;;;;10.40;9.40;;;20.40;99.90;;;;;;5025500;28;21029;-42
2021/07/24 07:17:51;;;;;;;12.80;10.30;;;20.50;99.90;;;;;;5027442;28;20190;-42
2021/07/24 07:20:17;;;;;;;10.77;9.67;;;20.60;99.90;;;;;;5026212;28;20497;-40
2021/07/24 07:22:43;;;;;;;12.70;10.77;;;20.60;99.90;;;;;;5037568;28;20428;-41
2021/07/24 07:25:10;;;;;;;12.00;10.80;;;20.60;99.90;;;;;;5044707;28;20515;-42
2021/07/24 07:27:43;;;;;;;12.10;10.87;;;20.60;99.90;;;;;;5025694;28;20190;-43
2021/07/24 07:30:11;;;;;;;11.70;10.23;;;20.50;99.90;;;;;;5026092;28;20463;-43
2021/07/24 07:32:37;;;;;;;11.60;10.33;;;20.50;99.90;;;;;;5033233;28;21016;-45
2021/07/24 07:35:03;;;;;;;11.70;9.50;;;20.60;99.90;;;;;;5028262;28;20429;-42
2021/07/24 07:37:29;;;;;;;10.33;9.33;;;20.60;99.90;;;;;;5025101;28;20193;-45
2021/07/24 07:39:54;;;;;;;13.40;9.80;;;20.60;99.90;;;;;;5032830;28;20507;-44
2021/07/24 07:42:20;;;;;;;12.23;10.60;;;20.70;99.90;;;;;;5035306;28;20539;-43
2021/07/24 07:44:46;;;;;;;12.73;10.47;;;20.70;99.90;;;;;;5030482;28;20205;-44
2021/07/24 07:47:11;;;;;;;12.60;11.03;;;20.70;99.90;;;;;;5038408;28;20671;-42
2021/07/24 07:49:38;;;;;;;11.60;10.50;;;20.80;99.90;;;;;;5044362;28;20631;-45
2021/07/24 07:52:05;;;;;;;12.33;11.07;;;20.80;99.90;;;;;;5026571;28;20214;-42
2021/07/24 07:54:32;;;;;;;11.47;10.37;;;20.80;99.90;;;;;;5026803;28;20509;-43
2021/07/24 07:57:02;;;;;;;13.50;9.80;;;20.90;99.90;;;;;;5029081;28;20421;-45
2021/07/24 07:59:28;;;;;;;11.53;10.33;;;20.90;99.90;;;;;;5031528;28;20471;-41
2021/07/24 08:01:53;;;;;;;12.07;10.33;;;21.00;99.90;;;;;;5039048;28;20456;-45
2021/07/24 08:04:19;;;;;;;12.43;11.13;;;21.10;99.90;;;;;;5037314;28;20552;-41
2021/07/24 08:06:45;;;;;;;12.10;10.90;;;21.10;99.90;;;;;;5027773;28;20715;-41
2021/07/24 08:09:10;;;;;;;12.37;10.63;;;21.20;99.90;;;;;;5038727;28;20230;-43
2021/07/24 08:11:36;;;;;;;12.23;10.70;;;21.20;99.90;;;;;;5029002;28;20276;-44
2021/07/24 08:14:02;;;;;;;14.67;10.60;;;21.30;99.90;;;;;;5029185;28;20225;-42
2021/07/24 08:16:28;;;;;;;14.23;11.17;;;21.30;99.90;;;;;;5036287;28;20208;-45
2021/07/24 08:18:53;;;;;;;12.00;10.77;;;21.40;99.90;;;;;;5035092;28;20256;-44
2021/07/24 08:21:19;;;;;;;13.67;11.50;;;21.40;99.90;;;;;;5029360;28;20637;-42
2021/07/24 08:23:45;;;;;;;11.67;10.37;;;21.50;99.90;;;;;;5034313;28;20190;-43
2021/07/24 08:26:11;;;;;;;11.77;10.57;;;21.60;99.90;;;;;;5027199;28;20425;-45
2021/07/24 08:28:37;;;;;;;12.43;10.13;;;21.70;99.90;;;;;;5029328;28;20430;-43
2021/07/24 08:31:02;;;;;;;15.67;11.30;;;21.80;99.90;;;;;;5033747;28;20470;-41
2021/07/24 08:33:28;;;;;;;11.33;10.23;;;21.80;99.90;;;;;;5042213;28;20288;-41
2021/07/24 08:35:55;;;;;;;14.23;11.10;;;21.90;99.90;;;;;;5038528;28;20221;-41
2021/07/24 08:38:20;;;;;;;12.93;10.23;;;22.00;99.90;;;;;;5030309;28;20273;-41
2021/07/24 08:40:47;;;;;;;11.40;10.30;;;22.10;99.90;;;;;;5028894;28;20509;-41
2021/07/24 08:43:13;;;;;;;11.30;10.20;;;22.20;99.90;;;;;;5028317;28;20202;-41
2021/07/24 08:45:38;;;;;;;12.03;10.80;;;22.20;99.90;;;;;;5032907;28;20432;-41
2021/07/24 08:48:05;;;;;;;11.37;10.13;;;22.30;99.90;;;;;;5042877;28;20433;-45
2021/07/24 08:50:33;;;;;;;11.63;10.37;;;22.30;99.90;;;;;;5033264;28;20190;-41
2021/07/24 08:53:04;;;;;;;12.70;10.87;;;22.40;99.90;;;;;;5028943;28;20483;-42
2021/07/24 08:55:30;;;;;;;11.20;10.20;;;22.50;99.90;;;;;;5037687;28;20471;-42
2021/07/24 08:57:58;;;;;;;11.40;10.00;;;22.60;99.90;;;;;;5028571;28;20457;-44
2021/07/24 09:00:26;;;;;;;12.53;11.20;;;22.80;99.90;;;;;;5030003;28;20429;-44
2021/07/24 09:02:53;;;;;;;10.60;9.60;;;22.90;99.90;;;;;;5039654;28;20452;-41
2021/07/24 09:05:19;;;;;;;11.33;10.23;;;22.90;99.90;;;;;;5034095;28;20775;-41
2021/07/24 09:07:47;;;;;;;11.97;10.30;;;23.00;99.90;;;;;;5026808;28;20870;-44
2021/07/24 09:10:14;;;;;;;14.33;11.60;;;23.10;99.90;;;;;;5034569;28;20514;-42
2021/07/24 09:12:45;;;;;;;11.93;10.00;;;23.30;99.90;;;;;;5028207;28;20460;-43
2021/07/24 09:15:14;;;;;;;13.63;10.87;;;23.40;99.90;;;;;;5027823;28;20493;-41
2021/07/24 09:17:39;;;;;;;12.50;11.30;;;23.40;99.90;;;;;;5038065;28;20410;-44
2021/07/24 09:20:06;;;;;;;13.17;10.50;;;23.60;99.90;;;;;;5044176;28;20420;-42
2021/07/24 09:22:39;;;;;;;13.43;11.23;;;23.70;99.90;;;;;;5028759;28;20432;-44
2021/07/24 09:25:17;;;;;;;13.20;11.03;;;23.70;99.90;;;;;;5029819;28;20436;-40
2021/07/24 09:27:47;;;;;;;11.70;10.53;;;23.80;99.90;;;;;;5028447;28;20417;-47
2021/07/24 09:30:24;;;;;;;11.07;9.97;;;23.80;99.90;;;;;;5029302;28;20528;-41
2021/07/24 09:33:10;;;;;;;12.53;11.37;;;24.00;99.90;;;;;;5036520;28;20452;-43
2021/07/24 09:35:40;;;;;;;10.93;9.83;;;24.10;99.90;;;;;;5027331;28;20575;-41
2021/07/24 09:38:13;;;;;;;14.27;10.10;;;24.20;99.90;;;;;;5027902;28;20685;-46
2021/07/24 09:40:41;;;;;;;11.33;10.33;;;24.40;99.90;;;;;;5039213;28;20409;-41
2021/07/24 09:43:27;;;;;;;14.10;10.90;;;24.40;99.90;;;;;;5027489;28;20413;-42
2021/07/24 09:46:18;;;;;;;14.37;11.10;;;24.50;99.90;;;;;;5027822;28;20459;-46
2021/07/24 09:48:48;;;;;;;13.97;10.80;;;24.50;99.90;;;;;;5035855;28;20419;-44
2021/07/24 09:51:15;;;;;;;11.70;10.50;;;24.50;99.90;;;;;;5027818;28;20466;-47
2021/07/24 09:53:42;;;;;;;14.60;13.10;;;24.40;99.90;;;;;;5029869;28;20428;-44
2021/07/24 09:56:14;;;;;;;11.80;10.70;;;24.30;99.90;;;;;;5031432;28;20784;-42
2021/07/24 09:58:40;;;;;;;13.47;11.43;;;24.30;99.90;;;;;;5027975;28;20478;-45
2021/07/24 10:01:08;;;;;;;12.83;11.53;;;24.40;99.90;;;;;;5028328;28;20437;-43
2021/07/24 10:03:35;;;;;;;11.63;10.53;;;24.40;99.90;;;;;;5035821;28;20776;-44
2021/07/24 10:06:09;;;;;;;11.00;10.00;;;24.40;99.90;;;;;;5039060;28;20512;-43
2021/07/24 10:08:37;;;;;;;14.93;12.47;;;24.50;99.90;;;;;;5027631;28;20437;-49
2021/07/24 10:11:03;;;;;;;11.80;10.63;;;24.60;99.90;;;;;;5027143;28;20425;-43
2021/07/24 10:13:29;;;;;;;15.40;10.20;;;24.60;99.90;;;;;;5027283;28;20452;-43
2021/07/24 10:15:56;;;;;;;13.70;12.30;;;24.70;99.90;;;;;;5032036;28;20190;-41
2021/07/24 10:18:22;;;;;;;13.30;11.40;;;24.70;99.90;;;;;;5040361;28;20830;-41
2021/07/24 10:20:49;;;;;;;13.13;11.57;;;24.70;99.90;;;;;;5035010;28;20528;-43
2021/07/24 10:23:19;;;;;;;13.77;12.27;;;24.70;99.90;;;;;;5027203;28;20178;-41
2021/07/24 10:25:55;;;;;;;13.27;11.87;;;24.80;99.90;;;;;;5039945;28;20521;-43
2021/07/24 10:28:31;;;;;;;13.47;11.73;;;24.80;99.90;;;;;;5028565;28;20432;-42
2021/07/24 10:31:04;;;;;;;12.57;11.37;;;24.70;99.90;;;;;;5029039;28;20958;-42
2021/07/24 10:33:31;;;;;;;13.73;12.30;;;24.70;99.90;;;;;;5036407;28;20793;-42
2021/07/24 10:36:16;;;;;;;13.00;11.70;;;24.70;99.90;;;;;;5033521;28;20414;-42
2021/07/24 10:39:03;;;;;;;13.77;12.20;;;24.80;99.90;;;;;;5028070;28;20433;-42
2021/07/24 10:41:32;;;;;;;14.80;13.20;;;24.80;99.90;;;;;;5043526;28;20420;-44
2021/07/24 10:44:10;;;;;;;13.50;12.10;;;24.70;99.90;;;;;;5046709;28;20595;-43
2021/07/24 10:46:45;;;;;;;12.50;11.40;;;24.60;99.90;;;;;;5040001;28;20467;-43
2021/07/24 10:49:22;;;;;;;14.93;12.17;;;24.50;99.90;;;;;;5044572;28;20468;-42
2021/07/24 10:52:00;;;;;;;13.80;12.47;;;24.50;99.90;;;;;;5028122;28;20475;-41
2021/07/24 10:54:27;;;;;;;13.80;12.40;;;24.50;99.90;;;;;;5030533;28;20430;-41
2021/07/24 10:56:53;;;;;;;13.30;12.00;;;24.50;99.90;;;;;;5028131;28;20448;-47
2021/07/24 10:59:28;;;;;;;13.10;11.90;;;24.50;99.90;;;;;;5026375;28;20417;-43
2021/07/24 11:01:58;;;;;;;16.07;13.57;;;24.40;99.90;;;;;;5027147;28;20519;-45
2021/07/24 11:04:38;;;;;;;13.20;11.90;;;24.40;99.90;;;;;;5041064;28;20413;-43
2021/07/24 11:07:13;;;;;;;263.60;29.40;;;24.30;99.90;;;;;;5034918;28;20447;-39
2021/07/24 11:10:02;;;;;;;41.33;15.73;;;24.40;99.90;;;;;;5033293;28;20447;-39
2021/07/24 11:12:41;;;;;;;131.60;21.03;;;24.40;99.90;;;;;;5030886;28;20940;-42
2021/07/24 11:15:08;;;;;;;22.20;12.70;;;24.40;99.90;;;;;;5027011;28;20421;-40
2021/07/24 11:17:35;;;;;;;15.57;13.77;;;24.40;99.90;;;;;;5030463;28;20433;-41
2021/07/24 11:20:01;;;;;;;15.00;13.50;;;24.40;99.90;;;;;;5043337;28;20423;-41
2021/07/24 11:22:27;;;;;;;14.07;12.50;;;24.40;99.90;;;;;;5027563;28;20417;-40
2021/07/24 11:24:53;;;;;;;31.33;13.30;;;24.30;99.90;;;;;;5033536;28;20429;-42
2021/07/24 11:27:32;;;;;;;14.13;12.00;;;24.40;99.90;;;;;;5029195;28;20433;-44
2021/07/24 11:30:04;;;;;;;17.47;13.53;;;24.40;99.90;;;;;;5027165;28;20595;-45
2021/07/24 11:32:32;;;;;;;14.03;12.60;;;24.30;99.90;;;;;;5033735;28;20472;-45
2021/07/24 11:35:00;;;;;;;14.53;13.13;;;24.30;99.90;;;;;;5040750;28;20421;-40
2021/07/24 11:37:45;;;;;;;14.67;13.27;;;24.20;99.90;;;;;;5038095;28;21061;-40
2021/07/24 11:40:33;;;;;;;19.20;14.27;;;24.20;99.90;;;;;;5032098;28;20421;-42
2021/07/24 11:43:03;;;;;;;14.63;13.23;;;24.20;99.90;;;;;;5027236;28;20527;-40
2021/07/24 11:45:31;;;;;;;14.37;12.90;;;24.10;99.90;;;;;;5032277;28;20455;-40
2021/07/24 11:48:09;;;;;;;14.60;13.17;;;24.10;99.90;;;;;;5031004;28;20912;-43
2021/07/24 11:50:35;;;;;;;15.93;13.13;;;24.10;99.90;;;;;;5035393;28;20441;-40
2021/07/24 11:53:02;;;;;;;13.80;12.50;;;24.00;99.90;;;;;;5027201;28;20587;-41
2021/07/24 11:55:29;;;;;;;41.50;14.90;;;23.90;99.90;;;;;;5035720;28;21171;-42
2021/07/24 11:58:13;;;;;;;13.73;12.43;;;24.00;99.90;;;;;;5030922;28;20445;-45
2021/07/24 12:00:40;;;;;;;14.83;13.17;;;23.90;99.90;;;;;;5025935;28;20432;-41
2021/07/24 12:03:23;;;;;;;14.10;12.70;;;24.00;99.90;;;;;;5029778;28;20447;-40
2021/07/24 12:05:53;;;;;;;13.53;12.20;;;24.00;99.90;;;;;;5030448;28;20421;-40
2021/07/24 12:08:26;;;;;;;13.10;11.80;;;24.10;99.90;;;;;;5027088;28;20413;-42
2021/07/24 12:10:53;;;;;;;15.33;12.83;;;24.20;99.90;;;;;;5034721;28;20443;-41
2021/07/24 12:13:24;;;;;;;17.40;14.07;;;24.20;99.90;;;;;;5026250;28;20475;-40
2021/07/24 12:16:12;;;;;;;15.50;13.63;;;24.30;99.90;;;;;;5026958;28;20420;-44
2021/07/24 12:18:41;;;;;;;14.60;13.20;;;24.30;99.90;;;;;;5034833;28;20443;-41
2021/07/24 12:21:13;;;;;;;14.47;13.07;;;24.30;99.90;;;;;;5043648;28;20503;-43
2021/07/24 12:23:45;;;;;;;17.43;13.87;;;24.20;99.90;;;;;;5028799;28;20432;-41
2021/07/24 12:26:13;;;;;;;15.03;13.53;;;24.20;99.90;;;;;;5028485;28;20514;-41
2021/07/24 12:28:41;;;;;;;15.00;13.50;;;24.20;99.90;;;;;;5025316;28;20417;-43
2021/07/24 12:31:16;;;;;;;14.53;13.10;;;24.30;99.90;;;;;;5025397;28;20421;-40
2021/07/24 12:33:52;;;;;;;14.33;12.90;;;24.20;99.90;;;;;;5035221;28;20584;-40
2021/07/24 12:36:20;;;;;;;16.50;14.83;;;24.20;99.90;;;;;;5029413;28;20953;-39
2021/07/24 12:38:46;;;;;;;16.40;14.27;;;24.20;99.90;;;;;;5032181;28;20442;-42